sensor_id;sensor_type;location;lat;lon;timestamp;pressure;altitude;pressure_sealevel;temperature;humidity
84855;BME280;75112;42.668;23.356;2024-02-21T00:01:45;95903.22;;;6.20;70.41
84855;BME280;75112;42.668;23.356;2024-02-21T00:04:10;95904.53;;;6.16;70.69
84855;BME280;75112;42.668;23.356;2024-02-21T00:06:36;95881.72;;;6.05;71.88
84855;BME280;75112;42.668;23.356;2024-02-21T00:09:01;95873.69;;;6.08;70.69
84855;BME280;75112;42.668;23.356;2024-02-21T00:11:27;95885.25;;;6.20;70.26
84855;BME280;75112;42.668;23.356;2024-02-21T00:13:53;95893.56;;;6.30;69.60
84855;BME280;75112;42.668;23.356;2024-02-21T00:16:18;95916.09;;;6.28;70.55
84855;BME280;75112;42.668;23.356;2024-02-21T00:18:44;95911.72;;;6.37;70.82
84855;BME280;75112;42.668;23.356;2024-02-21T00:21:09;95903.22;;;6.20;69.94
84855;BME280;75112;42.668;23.356;2024-02-21T00:23:40;95891.50;;;6.17;70.45
84855;BME280;75112;42.668;23.356;2024-02-21T00:26:05;95881.38;;;6.08;71.04
84855;BME280;75112;42.668;23.356;2024-02-21T00:28:31;95860.81;;;5.99;70.71
84855;BME280;75112;42.668;23.356;2024-02-21T00:30:56;95902.75;;;6.16;70.67
84855;BME280;75112;42.668;23.356;2024-02-21T00:33:21;95908.53;;;6.10;71.63
84855;BME280;75112;42.668;23.356;2024-02-21T00:35:47;95909.34;;;6.19;71.12
84855;BME280;75112;42.668;23.356;2024-02-21T00:38:12;95899.72;;;6.13;70.36
84855;BME280;75112;42.668;23.356;2024-02-21T00:40:38;95884.28;;;6.13;71.21
84855;BME280;75112;42.668;23.356;2024-02-21T00:43:03;95895.84;;;6.17;71.15
84855;BME280;75112;42.668;23.356;2024-02-21T00:45:29;95897.13;;;6.21;72.07
84855;BME280;75112;42.668;23.356;2024-02-21T00:47:54;95887.94;;;6.18;70.25
84855;BME280;75112;42.668;23.356;2024-02-21T00:50:19;95882.19;;;6.08;70.78
84855;BME280;75112;42.668;23.356;2024-02-21T00:52:45;95889.09;;;6.08;71.22
84855;BME280;75112;42.668;23.356;2024-02-21T00:55:10;95884.59;;;5.93;72.02
84855;BME280;75112;42.668;23.356;2024-02-21T00:57:36;95895.34;;;6.05;70.74
84855;BME280;75112;42.668;23.356;2024-02-21T01:00:03;95892.63;;;5.98;71.28
84855;BME280;75112;42.668;23.356;2024-02-21T01:02:28;95876.88;;;5.85;71.85
84855;BME280;75112;42.668;23.356;2024-02-21T01:04:57;95885.41;;;6.02;71.39
84855;BME280;75112;42.668;23.356;2024-02-21T01:07:22;95879.13;;;5.96;71.10
84855;BME280;75112;42.668;23.356;2024-02-21T01:09:47;95876.09;;;6.01;71.95
84855;BME280;75112;42.668;23.356;2024-02-21T01:12:13;95872.88;;;5.99;71.53
84855;BME280;75112;42.668;23.356;2024-02-21T01:14:38;95860.19;;;5.97;71.49
84855;BME280;75112;42.668;23.356;2024-02-21T01:17:04;95860.50;;;6.03;71.81
84855;BME280;75112;42.668;23.356;2024-02-21T01:19:31;95872.69;;;6.09;71.75
84855;BME280;75112;42.668;23.356;2024-02-21T01:21:56;95864.19;;;6.16;71.09
84855;BME280;75112;42.668;23.356;2024-02-21T01:24:22;95867.56;;;6.09;71.65
84855;BME280;75112;42.668;23.356;2024-02-21T01:26:47;95864.53;;;6.13;70.88
84855;BME280;75112;42.668;23.356;2024-02-21T01:29:12;95864.06;;;6.10;71.06
84855;BME280;75112;42.668;23.356;2024-02-21T01:31:38;95861.00;;;5.98;71.57
84855;BME280;75112;42.668;23.356;2024-02-21T01:34:03;95860.34;;;5.96;71.58
84855;BME280;75112;42.668;23.356;2024-02-21T01:36:28;95865.16;;;5.99;71.72
84855;BME280;75112;42.668;23.356;2024-02-21T01:38:54;95861.94;;;6.05;72.06
84855;BME280;75112;42.668;23.356;2024-02-21T01:41:19;95861.63;;;5.92;71.25
84855;BME280;75112;42.668;23.356;2024-02-21T01:43:44;95856.97;;;5.95;71.32
84855;BME280;75112;42.668;23.356;2024-02-21T01:46:10;95840.13;;;6.01;71.26
84855;BME280;75112;42.668;23.356;2024-02-21T01:48:36;95822.78;;;5.95;70.62
84855;BME280;75112;42.668;23.356;2024-02-21T01:51:03;95847.47;;;6.12;70.70
84855;BME280;75112;42.668;23.356;2024-02-21T01:53:32;95853.13;;;6.16;70.91
84855;BME280;75112;42.668;23.356;2024-02-21T01:55:59;95835.78;;;6.10;70.84
84855;BME280;75112;42.668;23.356;2024-02-21T01:58:25;95848.13;;;6.22;70.31
84855;BME280;75112;42.668;23.356;2024-02-21T02:00:51;95831.09;;;6.21;70.56
84855;BME280;75112;42.668;23.356;2024-02-21T02:03:16;95847.47;;;6.12;70.40
84855;BME280;75112;42.668;23.356;2024-02-21T02:05:47;95834.00;;;6.02;70.90
84855;BME280;75112;42.668;23.356;2024-02-21T02:08:14;95844.75;;;6.14;70.65
84855;BME280;75112;42.668;23.356;2024-02-21T02:10:40;95842.66;;;6.09;70.79
84855;BME280;75112;42.668;23.356;2024-02-21T02:13:05;95823.56;;;6.12;69.47
84855;BME280;75112;42.668;23.356;2024-02-21T02:15:47;95849.56;;;6.25;70.36
84855;BME280;75112;42.668;23.356;2024-02-21T02:18:14;95849.84;;;6.47;68.51
84855;BME280;75112;42.668;23.356;2024-02-21T02:20:40;95823.84;;;6.33;68.47
84855;BME280;75112;42.668;23.356;2024-02-21T02:25:31;95840.22;;;6.32;68.51
84855;BME280;75112;42.668;23.356;2024-02-21T02:27:56;95834.44;;;6.30;69.42
84855;BME280;75112;42.668;23.356;2024-02-21T02:30:21;95835.75;;;6.34;68.54
84855;BME280;75112;42.668;23.356;2024-02-21T02:32:47;95818.56;;;6.18;68.81
84855;BME280;75112;42.668;23.356;2024-02-21T02:35:12;95824.66;;;6.17;69.53
84855;BME280;75112;42.668;23.356;2024-02-21T02:37:38;95831.59;;;6.17;69.22
84855;BME280;75112;42.668;23.356;2024-02-21T02:40:07;95821.97;;;6.19;68.99
84855;BME280;75112;42.668;23.356;2024-02-21T02:42:32;95834.00;;;6.10;69.80
84855;BME280;75112;42.668;23.356;2024-02-21T02:44:58;95827.06;;;6.27;69.68
84855;BME280;75112;42.668;23.356;2024-02-21T02:47:23;95824.03;;;6.23;69.37
84855;BME280;75112;42.668;23.356;2024-02-21T02:49:49;95809.91;;;6.03;69.51
84855;BME280;75112;42.668;23.356;2024-02-21T02:52:16;95831.25;;;6.12;69.99
84855;BME280;75112;42.668;23.356;2024-02-21T02:54:43;95830.94;;;6.15;69.51
84855;BME280;75112;42.668;23.356;2024-02-21T02:57:08;95833.66;;;6.21;70.13
84855;BME280;75112;42.668;23.356;2024-02-21T02:59:34;95826.44;;;6.17;69.00
84855;BME280;75112;42.668;23.356;2024-02-21T03:01:59;95832.38;;;6.17;69.81
84855;BME280;75112;42.668;23.356;2024-02-21T03:04:24;95827.09;;;6.19;70.78
84855;BME280;75112;42.668;23.356;2024-02-21T03:06:50;95820.78;;;6.30;69.60
84855;BME280;75112;42.668;23.356;2024-02-21T03:09:16;95845.03;;;6.43;70.08
84855;BME280;75112;42.668;23.356;2024-02-21T03:11:42;95826.72;;;6.47;68.64
84855;BME280;75112;42.668;23.356;2024-02-21T03:14:09;95823.16;;;6.48;68.54
84855;BME280;75112;42.668;23.356;2024-02-21T03:16:35;95823.66;;;6.43;68.13
84855;BME280;75112;42.668;23.356;2024-02-21T03:19:00;95845.53;;;6.39;68.33
84855;BME280;75112;42.668;23.356;2024-02-21T03:21:26;95849.88;;;6.30;69.80
84855;BME280;75112;42.668;23.356;2024-02-21T03:23:51;95852.44;;;6.30;69.26
84855;BME280;75112;42.668;23.356;2024-02-21T03:26:16;95848.56;;;6.42;68.48
84855;BME280;75112;42.668;23.356;2024-02-21T03:28:43;95842.81;;;6.40;68.84
84855;BME280;75112;42.668;23.356;2024-02-21T03:31:13;95846.97;;;6.41;69.20
84855;BME280;75112;42.668;23.356;2024-02-21T03:33:42;95840.88;;;6.26;69.70
84855;BME280;75112;42.668;23.356;2024-02-21T03:36:14;95851.50;;;6.31;69.61
84855;BME280;75112;42.668;23.356;2024-02-21T03:38:40;95859.69;;;6.35;69.09
84855;BME280;75112;42.668;23.356;2024-02-21T03:41:06;95850.03;;;6.29;68.24
84855;BME280;75112;42.668;23.356;2024-02-21T03:43:31;95853.59;;;6.11;69.64
84855;BME280;75112;42.668;23.356;2024-02-21T03:45:57;95859.22;;;6.23;68.75
84855;BME280;75112;42.668;23.356;2024-02-21T03:48:23;95870.75;;;6.27;68.61
84855;BME280;75112;42.668;23.356;2024-02-21T03:50:52;95856.31;;;6.18;68.56
84855;BME280;75112;42.668;23.356;2024-02-21T03:53:17;95851.03;;;6.19;69.22
84855;BME280;75112;42.668;23.356;2024-02-21T03:55:42;95835.78;;;6.02;68.99
84855;BME280;75112;42.668;23.356;2024-02-21T03:58:08;95832.88;;;5.96;69.85
84855;BME280;75112;42.668;23.356;2024-02-21T04:00:33;95864.81;;;6.18;69.85
84855;BME280;75112;42.668;23.356;2024-02-21T04:02:58;95836.41;;;6.12;68.76
84855;BME280;75112;42.668;23.356;2024-02-21T04:05:24;95870.75;;;6.27;69.13
84855;BME280;75112;42.668;23.356;2024-02-21T04:07:49;95870.09;;;6.33;68.93
84855;BME280;75112;42.668;23.356;2024-02-21T04:10:15;95867.25;;;6.28;69.13
84855;BME280;75112;42.668;23.356;2024-02-21T04:12:40;95865.00;;;6.17;69.12
84855;BME280;75112;42.668;23.356;2024-02-21T04:15:05;95863.56;;;6.14;69.69
84855;BME280;75112;42.668;23.356;2024-02-21T04:17:31;95851.03;;;6.03;70.26
84855;BME280;75112;42.668;23.356;2024-02-21T04:20:04;95863.41;;;6.16;69.43
84855;BME280;75112;42.668;23.356;2024-02-21T04:22:31;95860.66;;;6.09;69.71
84855;BME280;75112;42.668;23.356;2024-02-21T04:24:59;95866.91;;;6.23;68.87
84855;BME280;75112;42.668;23.356;2024-02-21T04:27:25;95863.69;;;6.21;68.88
84855;BME280;75112;42.668;23.356;2024-02-21T04:29:51;95856.97;;;6.28;68.43
84855;BME280;75112;42.668;23.356;2024-02-21T04:32:17;95862.75;;;6.22;68.69
84855;BME280;75112;42.668;23.356;2024-02-21T04:34:42;95858.72;;;6.11;69.02
84855;BME280;75112;42.668;23.356;2024-02-21T04:37:07;95862.13;;;5.95;68.91
84855;BME280;75112;42.668;23.356;2024-02-21T04:39:33;95852.16;;;6.01;69.58
84855;BME280;75112;42.668;23.356;2024-02-21T04:41:58;95865.00;;;6.09;68.92
84855;BME280;75112;42.668;23.356;2024-02-21T04:44:24;95866.28;;;6.05;69.02
84855;BME280;75112;42.668;23.356;2024-02-21T04:46:49;95861.63;;;5.92;68.95
84855;BME280;75112;42.668;23.356;2024-02-21T04:49:14;95860.19;;;5.97;70.27
84855;BME280;75112;42.668;23.356;2024-02-21T04:51:40;95854.25;;;5.97;69.59
84855;BME280;75112;42.668;23.356;2024-02-21T04:54:06;95857.94;;;5.94;69.49
84855;BME280;75112;42.668;23.356;2024-02-21T04:56:31;95858.91;;;5.93;69.46
84855;BME280;75112;42.668;23.356;2024-02-21T04:58:57;95856.31;;;5.85;70.13
84855;BME280;75112;42.668;23.356;2024-02-21T05:01:22;95859.84;;;5.76;70.46
84855;BME280;75112;42.668;23.356;2024-02-21T05:03:47;95859.03;;;5.67;69.89
84855;BME280;75112;42.668;23.356;2024-02-21T05:06:13;95835.09;;;5.50;70.57
84855;BME280;75112;42.668;23.356;2024-02-21T05:08:38;95865.44;;;5.71;70.22
84855;BME280;75112;42.668;23.356;2024-02-21T05:11:04;95857.41;;;5.58;70.77
84855;BME280;75112;42.668;23.356;2024-02-21T05:13:29;95866.72;;;5.59;70.87
84855;BME280;75112;42.668;23.356;2024-02-21T05:15:54;95866.91;;;5.58;70.99
84855;BME280;75112;42.668;23.356;2024-02-21T05:18:20;95875.22;;;5.51;71.16
84855;BME280;75112;42.668;23.356;2024-02-21T05:20:46;95873.97;;;5.64;71.16
84855;BME280;75112;42.668;23.356;2024-02-21T05:23:11;95878.47;;;5.70;70.40
84855;BME280;75112;42.668;23.356;2024-02-21T05:25:37;95870.88;;;5.60;71.52
84855;BME280;75112;42.668;23.356;2024-02-21T05:28:03;95871.38;;;5.72;71.52
84855;BME280;75112;42.668;23.356;2024-02-21T05:30:31;95866.56;;;5.69;71.46
84855;BME280;75112;42.668;23.356;2024-02-21T05:32:56;95874.91;;;5.87;71.35
84855;BME280;75112;42.668;23.356;2024-02-21T05:35:26;95873.97;;;5.80;71.33
84855;BME280;75112;42.668;23.356;2024-02-21T05:37:52;95883.09;;;5.91;71.36
84855;BME280;75112;42.668;23.356;2024-02-21T05:40:18;95874.00;;;6.05;70.33
84855;BME280;75112;42.668;23.356;2024-02-21T05:42:43;95885.56;;;6.01;70.55
84855;BME280;75112;42.668;23.356;2024-02-21T05:45:09;95879.78;;;6.07;70.21
84855;BME280;75112;42.668;23.356;2024-02-21T05:47:34;95880.59;;;5.99;70.42
84855;BME280;75112;42.668;23.356;2024-02-21T05:49:59;95865.00;;;6.17;69.75
84855;BME280;75112;42.668;23.356;2024-02-21T05:52:25;95887.16;;;6.34;69.36
84855;BME280;75112;42.668;23.356;2024-02-21T05:54:50;95872.69;;;6.33;68.34
84855;BME280;75112;42.668;23.356;2024-02-21T05:57:17;95893.56;;;6.47;67.74
84855;BME280;75112;42.668;23.356;2024-02-21T05:59:43;95896.28;;;6.45;68.61
84855;BME280;75112;42.668;23.356;2024-02-21T06:02:09;95895.31;;;6.46;68.20
84855;BME280;75112;42.668;23.356;2024-02-21T06:04:35;95886.97;;;6.28;68.58
84855;BME280;75112;42.668;23.356;2024-02-21T06:07:01;95893.56;;;6.38;68.35
84855;BME280;75112;42.668;23.356;2024-02-21T06:09:27;95895.13;;;6.56;68.36
84855;BME280;75112;42.668;23.356;2024-02-21T06:11:52;95901.25;;;6.63;67.20
84855;BME280;75112;42.668;23.356;2024-02-21T06:14:18;95902.84;;;6.64;66.76
84855;BME280;75112;42.668;23.356;2024-02-21T06:16:44;95901.53;;;6.76;67.78
84855;BME280;75112;42.668;23.356;2024-02-21T06:19:09;95909.91;;;7.18;66.74
84855;BME280;75112;42.668;23.356;2024-02-21T06:21:34;95907.34;;;7.49;65.00
84855;BME280;75112;42.668;23.356;2024-02-21T06:24:00;95902.56;;;7.69;62.86
84855;BME280;75112;42.668;23.356;2024-02-21T06:26:25;95903.91;;;7.56;62.81
84855;BME280;75112;42.668;23.356;2024-02-21T06:28:51;95902.28;;;7.87;63.02
84855;BME280;75112;42.668;23.356;2024-02-21T06:31:16;95918.19;;;8.13;61.22
84855;BME280;75112;42.668;23.356;2024-02-21T06:33:43;95923.75;;;8.02;62.19
84855;BME280;75112;42.668;23.356;2024-02-21T06:36:08;95919.28;;;8.42;61.71
84855;BME280;75112;42.668;23.356;2024-02-21T06:38:33;95913.53;;;9.65;57.30
84855;BME280;75112;42.668;23.356;2024-02-21T06:41:02;95924.00;;;9.42;57.29
84855;BME280;75112;42.668;23.356;2024-02-21T06:43:28;95909.44;;;8.60;60.03
84855;BME280;75112;42.668;23.356;2024-02-21T06:45:53;95930.53;;;8.79;60.10
84855;BME280;75112;42.668;23.356;2024-02-21T06:48:20;95919.75;;;8.22;61.61
84855;BME280;75112;42.668;23.356;2024-02-21T06:50:45;95940.94;;;8.33;61.92
84855;BME280;75112;42.668;23.356;2024-02-21T06:53:12;95927.28;;;8.24;62.15
84855;BME280;75112;42.668;23.356;2024-02-21T06:55:38;95947.81;;;8.40;60.96
84855;BME280;75112;42.668;23.356;2024-02-21T06:58:03;95933.59;;;8.21;61.81
84855;BME280;75112;42.668;23.356;2024-02-21T07:00:29;95937.91;;;8.29;60.48
84855;BME280;75112;42.668;23.356;2024-02-21T07:02:54;95938.66;;;8.15;61.26
84855;BME280;75112;42.668;23.356;2024-02-21T07:05:20;95931.44;;;8.10;61.69
84855;BME280;75112;42.668;23.356;2024-02-21T07:07:45;95929.72;;;8.02;62.07
84855;BME280;75112;42.668;23.356;2024-02-21T07:10:11;95938.16;;;8.34;61.38
84855;BME280;75112;42.668;23.356;2024-02-21T07:12:36;95941.44;;;8.51;60.55
84855;BME280;75112;42.668;23.356;2024-02-21T07:15:04;95940.69;;;8.65;60.59
84855;BME280;75112;42.668;23.356;2024-02-21T07:17:30;95935.88;;;8.62;59.85
84855;BME280;75112;42.668;23.356;2024-02-21T07:19:55;95940.28;;;8.30;60.97
84855;BME280;75112;42.668;23.356;2024-02-21T07:22:22;95945.06;;;8.19;62.48
84855;BME280;75112;42.668;23.356;2024-02-21T07:24:47;95929.53;;;8.27;61.81
84855;BME280;75112;42.668;23.356;2024-02-21T07:27:15;95935.78;;;8.10;62.93
84855;BME280;75112;42.668;23.356;2024-02-21T07:29:40;95947.28;;;8.22;61.83
84855;BME280;75112;42.668;23.356;2024-02-21T07:32:05;95929.13;;;8.15;60.37
84855;BME280;75112;42.668;23.356;2024-02-21T07:34:31;95950.78;;;8.06;63.32
84855;BME280;75112;42.668;23.356;2024-02-21T07:36:57;95944.69;;;8.07;62.17
84855;BME280;75112;42.668;23.356;2024-02-21T07:39:22;95933.19;;;8.10;62.93
84855;BME280;75112;42.668;23.356;2024-02-21T07:41:48;95950.22;;;8.19;62.32
84855;BME280;75112;42.668;23.356;2024-02-21T07:44:15;95941.28;;;8.29;62.50
84855;BME280;75112;42.668;23.356;2024-02-21T07:46:40;95932.56;;;8.30;62.22
84855;BME280;75112;42.668;23.356;2024-02-21T07:49:05;95937.84;;;8.14;61.14
84855;BME280;75112;42.668;23.356;2024-02-21T07:51:31;95941.72;;;8.33;61.90
84855;BME280;75112;42.668;23.356;2024-02-21T07:53:56;95936.75;;;8.32;61.02
84855;BME280;75112;42.668;23.356;2024-02-21T07:56:21;95926.84;;;8.20;62.02
84855;BME280;75112;42.668;23.356;2024-02-21T07:58:47;95921.53;;;8.37;61.93
84855;BME280;75112;42.668;23.356;2024-02-21T08:01:18;95924.22;;;8.28;60.96
84855;BME280;75112;42.668;23.356;2024-02-21T08:03:45;95937.13;;;8.66;60.31
84855;BME280;75112;42.668;23.356;2024-02-21T08:06:12;95932.47;;;8.47;60.81
84855;BME280;75112;42.668;23.356;2024-02-21T08:08:38;95935.31;;;8.52;60.73
84855;BME280;75112;42.668;23.356;2024-02-21T08:11:03;95937.44;;;8.48;60.83
84855;BME280;75112;42.668;23.356;2024-02-21T08:13:29;95934.56;;;8.43;61.17
84855;BME280;75112;42.668;23.356;2024-02-21T08:15:54;95924.59;;;8.40;60.63
84855;BME280;75112;42.668;23.356;2024-02-21T08:18:20;95935.31;;;8.52;59.76
84855;BME280;75112;42.668;23.356;2024-02-21T08:20:45;95936.78;;;8.46;60.42
84855;BME280;75112;42.668;23.356;2024-02-21T08:23:10;95923.75;;;8.48;61.06
84855;BME280;75112;42.668;23.356;2024-02-21T08:25:36;95940.69;;;8.65;61.33
84855;BME280;75112;42.668;23.356;2024-02-21T08:28:01;95929.22;;;8.97;61.65
84855;BME280;75112;42.668;23.356;2024-02-21T08:30:27;95913.78;;;9.34;58.47
84855;BME280;75112;42.668;23.356;2024-02-21T08:32:53;95926.56;;;9.57;58.30
84855;BME280;75112;42.668;23.356;2024-02-21T08:35:21;95921.50;;;9.49;56.46
84855;BME280;75112;42.668;23.356;2024-02-21T08:37:50;95926.78;;;9.77;56.85
84855;BME280;75112;42.668;23.356;2024-02-21T08:40:15;95919.88;;;9.84;55.07
84855;BME280;75112;42.668;23.356;2024-02-21T08:42:44;95908.75;;;9.47;56.35
84855;BME280;75112;42.668;23.356;2024-02-21T08:45:10;95917.53;;;9.67;55.59
84855;BME280;75112;42.668;23.356;2024-02-21T08:47:35;95914.47;;;9.79;55.55
84855;BME280;75112;42.668;23.356;2024-02-21T08:50:02;95924.31;;;9.90;55.28
84855;BME280;75112;42.668;23.356;2024-02-21T08:52:27;95926.53;;;9.93;52.73
84855;BME280;75112;42.668;23.356;2024-02-21T08:54:53;95923.47;;;9.83;54.05
84855;BME280;75112;42.668;23.356;2024-02-21T08:57:20;95921.78;;;10.18;54.51
84855;BME280;75112;42.668;23.356;2024-02-21T08:59:45;95933.09;;;10.32;53.30
84855;BME280;75112;42.668;23.356;2024-02-21T09:02:12;95927.19;;;10.38;54.13
84855;BME280;75112;42.668;23.356;2024-02-21T09:04:38;95925.69;;;10.50;52.89
84855;BME280;75112;42.668;23.356;2024-02-21T09:07:03;95921.53;;;10.56;53.47
84855;BME280;75112;42.668;23.356;2024-02-21T09:09:29;95937.22;;;10.76;53.30
84855;BME280;75112;42.668;23.356;2024-02-21T09:11:54;95925.84;;;10.77;52.85
84855;BME280;75112;42.668;23.356;2024-02-21T09:14:19;95940.84;;;10.53;52.81
84855;BME280;75112;42.668;23.356;2024-02-21T09:16:45;95916.25;;;9.78;54.32
84855;BME280;75112;42.668;23.356;2024-02-21T09:19:10;95928.47;;;9.69;55.61
84855;BME280;75112;42.668;23.356;2024-02-21T09:21:39;95925.75;;;9.56;55.46
84855;BME280;75112;42.668;23.356;2024-02-21T09:24:05;95935.47;;;9.90;55.42
84855;BME280;75112;42.668;23.356;2024-02-21T09:26:31;95917.66;;;10.24;53.83
84855;BME280;75112;42.668;23.356;2024-02-21T09:28:57;95916.06;;;10.23;53.90
84855;BME280;75112;42.668;23.356;2024-02-21T09:31:22;95910.19;;;10.29;53.68
84855;BME280;75112;42.668;23.356;2024-02-21T09:33:48;95926.66;;;10.49;54.30
84855;BME280;75112;42.668;23.356;2024-02-21T09:36:13;95914.50;;;10.50;52.85
84855;BME280;75112;42.668;23.356;2024-02-21T09:38:40;95927.22;;;10.45;54.15
84855;BME280;75112;42.668;23.356;2024-02-21T09:41:15;95929.88;;;10.51;53.45
84855;BME280;75112;42.668;23.356;2024-02-21T09:43:41;95923.28;;;10.49;54.65
84855;BME280;75112;42.668;23.356;2024-02-21T09:46:08;95925.44;;;10.45;53.16
84855;BME280;75112;42.668;23.356;2024-02-21T09:51:30;95919.44;;;10.66;53.33
84855;BME280;75112;42.668;23.356;2024-02-21T09:53:57;95934.69;;;10.89;53.11
84855;BME280;75112;42.668;23.356;2024-02-21T09:56:23;95913.56;;;10.86;54.18
84855;BME280;75112;42.668;23.356;2024-02-21T09:58:48;95920.81;;;10.97;52.22
84855;BME280;75112;42.668;23.356;2024-02-21T10:01:14;95924.56;;;10.94;52.96
84855;BME280;75112;42.668;23.356;2024-02-21T10:03:39;95915.25;;;11.00;51.53
84855;BME280;75112;42.668;23.356;2024-02-21T10:06:05;95917.16;;;10.56;52.06
84855;BME280;75112;42.668;23.356;2024-02-21T10:08:30;95911.06;;;10.71;51.45
84855;BME280;75112;42.668;23.356;2024-02-21T10:10:55;95914.41;;;10.93;51.25
84855;BME280;75112;42.668;23.356;2024-02-21T10:13:29;95915.72;;;11.17;50.13
84855;BME280;75112;42.668;23.356;2024-02-21T10:16:20;95907.38;;;11.21;49.42
84855;BME280;75112;42.668;23.356;2024-02-21T10:18:46;95900.38;;;11.15;48.80
84855;BME280;75112;42.668;23.356;2024-02-21T10:21:12;95911.25;;;10.97;50.07
84855;BME280;75112;42.668;23.356;2024-02-21T10:23:53;95888.63;;;10.78;50.18
84855;BME280;75112;42.668;23.356;2024-02-21T10:26:19;95897.16;;;11.06;49.15
84855;BME280;75112;42.668;23.356;2024-02-21T10:28:45;95892.69;;;10.94;50.53
84855;BME280;75112;42.668;23.356;2024-02-21T10:31:24;95875.94;;;10.90;49.42
84855;BME280;75112;42.668;23.356;2024-02-21T10:33:54;95879.78;;;11.00;49.20
84855;BME280;75112;42.668;23.356;2024-02-21T10:36:20;95869.31;;;10.80;48.83
84855;BME280;75112;42.668;23.356;2024-02-21T10:38:45;95870.53;;;10.85;47.55
84855;BME280;75112;42.668;23.356;2024-02-21T10:41:14;95856.75;;;11.19;48.51
84855;BME280;75112;42.668;23.356;2024-02-21T10:43:40;95857.47;;;11.61;46.41
84855;BME280;75112;42.668;23.356;2024-02-21T10:46:07;95858.06;;;11.69;47.67
84855;BME280;75112;42.668;23.356;2024-02-21T10:48:42;95852.94;;;11.83;45.73
84855;BME280;75112;42.668;23.356;2024-02-21T10:51:18;95835.59;;;11.96;46.65
84855;BME280;75112;42.668;23.356;2024-02-21T10:56:38;95837.59;;;12.21;44.67
84855;BME280;75112;42.668;23.356;2024-02-21T10:59:06;95829.78;;;12.34;45.46
84855;BME280;75112;42.668;23.356;2024-02-21T11:01:32;95831.81;;;12.26;45.47
84855;BME280;75112;42.668;23.356;2024-02-21T11:04:08;95821.19;;;12.47;45.87
84855;BME280;75112;42.668;23.356;2024-02-21T11:06:35;95823.78;;;12.54;42.92
84855;BME280;75112;42.668;23.356;2024-02-21T11:09:06;95817.81;;;12.07;44.26
84855;BME280;75112;42.668;23.356;2024-02-21T11:11:41;95816.22;;;12.12;45.08
84855;BME280;75112;42.668;23.356;2024-02-21T11:14:27;95809.38;;;12.58;41.97
84855;BME280;75112;42.668;23.356;2024-02-21T11:16:53;95816.03;;;12.14;42.80
84855;BME280;75112;42.668;23.356;2024-02-21T11:19:21;95809.66;;;12.16;44.89
84855;BME280;75112;42.668;23.356;2024-02-21T11:21:46;95803.91;;;12.86;41.76
84855;BME280;75112;42.668;23.356;2024-02-21T11:24:13;95808.69;;;12.89;40.26
84855;BME280;75112;42.668;23.356;2024-02-21T11:26:40;95796.81;;;12.48;41.08
84855;BME280;75112;42.668;23.356;2024-02-21T11:29:07;95810.44;;;13.08;40.12
84855;BME280;75112;42.668;23.356;2024-02-21T11:31:39;95796.97;;;13.56;39.12
84855;BME280;75112;42.668;23.356;2024-02-21T11:34:08;95795.59;;;13.54;39.47
84855;BME280;75112;42.668;23.356;2024-02-21T11:36:34;95793.38;;;13.19;41.45
84855;BME280;75112;42.668;23.356;2024-02-21T11:39:05;95793.03;;;13.09;39.67
84855;BME280;75112;42.668;23.356;2024-02-21T11:41:31;95791.38;;;12.70;41.57
84855;BME280;75112;42.668;23.356;2024-02-21T11:43:57;95793.81;;;12.58;39.54
84855;BME280;75112;42.668;23.356;2024-02-21T11:46:22;95792.06;;;12.25;41.40
84855;BME280;75112;42.668;23.356;2024-02-21T11:48:48;95785.06;;;12.19;43.96
84855;BME280;75112;42.668;23.356;2024-02-21T11:51:25;95779.53;;;11.95;42.08
84855;BME280;75112;42.668;23.356;2024-02-21T11:53:52;95779.88;;;11.79;43.49
84855;BME280;75112;42.668;23.356;2024-02-21T11:56:18;95785.28;;;11.78;44.92
84855;BME280;75112;42.668;23.356;2024-02-21T11:58:44;95775.50;;;11.80;45.20
84855;BME280;75112;42.668;23.356;2024-02-21T12:01:10;95776.72;;;11.97;43.49
84855;BME280;75112;42.668;23.356;2024-02-21T12:03:36;95771.31;;;11.72;43.23
84855;BME280;75112;42.668;23.356;2024-02-21T12:06:02;95784.47;;;11.57;42.64
84855;BME280;75112;42.668;23.356;2024-02-21T12:08:40;95772.31;;;11.64;43.64
84855;BME280;75112;42.668;23.356;2024-02-21T12:11:16;95765.50;;;11.63;43.33
84855;BME280;75112;42.668;23.356;2024-02-21T12:13:41;95770.13;;;11.61;43.58
84855;BME280;75112;42.668;23.356;2024-02-21T12:16:07;95775.09;;;11.43;44.06
84855;BME280;75112;42.668;23.356;2024-02-21T12:18:32;95769.91;;;11.36;44.13
84855;BME280;75112;42.668;23.356;2024-02-21T12:20:58;95760.31;;;11.30;45.11
84855;BME280;75112;42.668;23.356;2024-02-21T12:23:27;95753.16;;;11.45;45.14
84855;BME280;75112;42.668;23.356;2024-02-21T12:25:52;95754.75;;;11.40;46.39
84855;BME280;75112;42.668;23.356;2024-02-21T12:28:19;95745.16;;;11.53;45.12
84855;BME280;75112;42.668;23.356;2024-02-21T12:30:45;95751.94;;;11.28;46.07
84855;BME280;75112;42.668;23.356;2024-02-21T12:33:10;95751.72;;;11.29;45.61
84855;BME280;75112;42.668;23.356;2024-02-21T12:35:35;95754.75;;;11.46;45.70
84855;BME280;75112;42.668;23.356;2024-02-21T12:38:01;95754.53;;;11.48;44.86
84855;BME280;75112;42.668;23.356;2024-02-21T12:40:26;95753.53;;;11.36;44.60
84855;BME280;75112;42.668;23.356;2024-02-21T12:42:59;95746.75;;;11.28;45.12
84855;BME280;75112;42.668;23.356;2024-02-21T12:45:24;95749.66;;;11.05;45.47
84855;BME280;75112;42.668;23.356;2024-02-21T12:47:50;95744.84;;;10.89;44.84
84855;BME280;75112;42.668;23.356;2024-02-21T12:50:15;95749.41;;;10.80;45.38
84855;BME280;75112;42.668;23.356;2024-02-21T12:52:40;95736.09;;;10.90;44.73
84855;BME280;75112;42.668;23.356;2024-02-21T12:55:06;95751.47;;;10.98;45.12
84855;BME280;75112;42.668;23.356;2024-02-21T12:57:32;95741.69;;;10.93;46.27
84855;BME280;75112;42.668;23.356;2024-02-21T12:59:57;95739.38;;;11.25;46.48
84855;BME280;75112;42.668;23.356;2024-02-21T13:02:22;95745.00;;;11.48;44.97